Terminal Aerodrome Forecast
Issued by NWS Grand Rapids, MI

Current Version | Previous Version | Text Only | Print | Product List | Glossary On
Versions: 1 2 3 4 5 6 7 8 9 10 11 12 13 14
000
FTUS43 KGRR 201100
TAFGRR
TAF
KGRR 201140Z 2012/2112 16010KT P6SM BKN150
     FM201600 19011KT P6SM BKN250=

USA.gov is the U.S. government's official web portal to all federal, state and local government web resources and services.